Peotone Weather
Peotone-Weather Station Historical Data
 
Daily Summary for December 08, 2019 Units:  English    Metric   Both
Daily Weekly Monthly Yearly Custom
  Current: High: Low: Average:
Temperature: 45.3 °F 48.1 °F 28.1 °F 38.9 °F
Dew Point: 39.5 °F 40.5 °F 21.4 °F 32.5 °F
Humidity: 80% 83% 73% 78%
Wind Speed: 7.3mph 12.1mph 3.5mph 7.9mph
Wind Gust: 11.5mph 24.1mph - -
WindSSE - - SSE
Pressure: 29.85 in 30.20 in 29.85 in -
Precipitation: 0.00 in      
Historical Graphs
 
 
Tabular Data for December 08, 2019
Time Temperature Dew Point Pressure Wind Wind Speed Wind Gust Humidity Rainfall Rate (Hourly) solar
00:04 29.5 °F 22.5 °F 30.20 in SE 6.2 mph 11.5 mph 74.6% 0.00 in 0 W/m2
00:09 29.5 °F 22.6 °F 30.19 in SE 5.8 mph 11.5 mph 75% 0.00 in 0 W/m2
00:14 29.4 °F 22.5 °F 30.19 in SE 6 mph 10.3 mph 74.9% 0.00 in 0 W/m2
00:19 29.4 °F 22.4 °F 30.19 in ESE 4.3 mph 10.3 mph 74.8% 0.00 in 0 W/m2
00:24 29.3 °F 22.4 °F 30.19 in SE 4.4 mph 10.3 mph 75% 0.00 in 0 W/m2
00:29 29.2 °F 22.3 °F 30.19 in SE 4.4 mph 9.2 mph 74.8% 0.00 in 0 W/m2
00:34 29.2 °F 22.1 °F 30.19 in SE 3.6 mph 9.2 mph 74.5% 0.00 in 0 W/m2
00:39 29.1 °F 21.9 °F 30.18 in SE 3.8 mph 6.9 mph 74% 0.00 in 0 W/m2
00:44 29 °F 21.8 °F 30.18 in ESE 4.5 mph 9.2 mph 74.3% 0.00 in 0 W/m2
00:49 28.9 °F 22 °F 30.19 in ESE 3.5 mph 9.2 mph 75% 0.00 in 0 W/m2
00:54 28.8 °F 21.8 °F 30.19 in SE 4.6 mph 9.2 mph 74.8% 0.00 in 0 W/m2
00:59 28.7 °F 21.6 °F 30.19 in SE 4.5 mph 9.2 mph 74.4% 0.00 in 0 W/m2
01:04 28.6 °F 21.7 °F 30.18 in SE 3.7 mph 9.2 mph 75% 0.00 in 0 W/m2
01:09 28.5 °F 21.6 °F 30.18 in SE 5.5 mph 9.2 mph 75% 0.00 in 0 W/m2
01:14 28.4 °F 21.5 °F 30.18 in ESE 4.9 mph 9.2 mph 75% 0.00 in 0 W/m2
01:19 28.4 °F 21.5 °F 30.18 in ESE 4 mph 9.2 mph 75% 0.00 in 0 W/m2
01:24 28.4 °F 21.5 °F 30.18 in ESE 5.2 mph 9.2 mph 75% 0.00 in 0 W/m2
01:29 28.4 °F 21.5 °F 30.17 in ESE 4.4 mph 9.2 mph 75% 0.00 in 0 W/m2
01:34 28.3 °F 21.4 °F 30.17 in ESE 4.6 mph 9.2 mph 75% 0.00 in 0 W/m2
01:39 28.3 °F 21.5 °F 30.17 in ESE 4.4 mph 9.2 mph 75.4% 0.00 in 0 W/m2
01:44 28.2 °F 21.6 °F 30.17 in ESE 5.1 mph 10.3 mph 76% 0.00 in 0 W/m2
01:49 28.2 °F 21.6 °F 30.17 in SE 5 mph 10.3 mph 76% 0.00 in 0 W/m2
01:54 28.1 °F 21.6 °F 30.16 in SE 5.7 mph 9.2 mph 76% 0.00 in 0 W/m2
01:59 28.1 °F 21.5 °F 30.16 in SE 5.3 mph 9.2 mph 76% 0.00 in 0 W/m2
02:04 28.1 °F 21.5 °F 30.16 in SE 5.4 mph 10.3 mph 76% 0.00 in 0 W/m2
02:09 28.1 °F 21.5 °F 30.15 in SE 5.3 mph 10.3 mph 76% 0.00 in 0 W/m2
02:14 28.1 °F 21.5 °F 30.15 in SE 6.1 mph 9.2 mph 76% 0.00 in 0 W/m2
02:19 28.1 °F 21.7 °F 30.15 in SE 6.2 mph 10.3 mph 76.6% 0.00 in 0 W/m2
02:24 28.1 °F 21.8 °F 30.15 in SE 6.2 mph 10.3 mph 77% 0.00 in 0 W/m2
02:29 28.1 °F 21.8 °F 30.14 in SE 5.6 mph 10.3 mph 77% 0.00 in 0 W/m2
02:34 28.1 °F 21.8 °F 30.14 in SE 6.1 mph 9.2 mph 77% 0.00 in 0 W/m2
02:39 28.1 °F 21.9 °F 30.13 in SE 6.8 mph 10.3 mph 77% 0.00 in 0 W/m2
02:44 28.2 °F 21.9 °F 30.13 in SE 6.4 mph 12.6 mph 77% 0.00 in 0 W/m2
02:49 28.2 °F 22 °F 30.13 in SE 6.4 mph 12.6 mph 77% 0.00 in 0 W/m2
02:54 28.3 °F 22 °F 30.13 in SE 5.9 mph 12.6 mph 77% 0.00 in 0 W/m2
02:59 28.4 °F 22.1 °F 30.13 in SE 6.1 mph 12.6 mph 77% 0.00 in 0 W/m2
03:04 28.4 °F 22.1 °F 30.13 in SSE 7.4 mph 10.3 mph 77% 0.00 in 0 W/m2
03:09 28.4 °F 22.1 °F 30.13 in SSE 4.9 mph 10.3 mph 77% 0.00 in 0 W/m2
03:14 28.4 °F 22.1 °F 30.13 in SE 5.3 mph 10.3 mph 77% 0.00 in 0 W/m2
03:19 28.4 °F 22.1 °F 30.12 in SE 6.2 mph 11.5 mph 77% 0.00 in 0 W/m2
03:24 28.5 °F 22.2 °F 30.12 in SE 6.4 mph 11.5 mph 77% 0.00 in 0 W/m2
03:29 28.4 °F 22.2 °F 30.12 in SE 6 mph 10.3 mph 77% 0.00 in 0 W/m2
03:34 28.4 °F 22.1 °F 30.11 in SE 6 mph 10.3 mph 77% 0.00 in 0 W/m2
03:39 28.4 °F 22.1 °F 30.11 in SE 5.2 mph 11.5 mph 77% 0.00 in 0 W/m2
03:44 28.4 °F 22.1 °F 30.11 in SE 5.9 mph 11.5 mph 77% 0.00 in 0 W/m2
03:49 28.3 °F 22 °F 30.10 in SE 6 mph 11.5 mph 77% 0.00 in 0 W/m2
03:54 28.2 °F 22 °F 30.10 in SE 5.2 mph 11.5 mph 77% 0.00 in 0 W/m2
03:59 28.2 °F 21.9 °F 30.10 in SE 5.7 mph 10.3 mph 77% 0.00 in 0 W/m2
04:04 28.2 °F 21.9 °F 30.09 in SE 4.9 mph 10.3 mph 77% 0.00 in 0 W/m2
04:09 28.2 °F 21.9 °F 30.09 in SE 5.2 mph 9.2 mph 77% 0.00 in 0 W/m2
04:14 28.2 °F 21.9 °F 30.09 in SE 6.1 mph 10.3 mph 77% 0.00 in 0 W/m2
04:19 28.2 °F 22 °F 30.09 in SE 6.1 mph 10.3 mph 77% 0.00 in 0 W/m2
04:24 28.3 °F 22.3 °F 30.09 in SE 6 mph 12.6 mph 77.7% 0.00 in 0 W/m2
04:29 28.4 °F 22.4 °F 30.09 in SE 6.5 mph 12.6 mph 78% 0.00 in 0 W/m2
04:34 28.4 °F 22.5 °F 30.09 in SE 6.2 mph 11.5 mph 78% 0.00 in 0 W/m2
04:39 28.5 °F 22.6 °F 30.08 in SE 6 mph 11.5 mph 78% 0.00 in 0 W/m2
04:44 28.6 °F 22.6 °F 30.08 in SE 6 mph 10.3 mph 78% 0.00 in 0 W/m2
04:49 28.6 °F 22.7 °F 30.08 in SE 4.3 mph 10.3 mph 78% 0.00 in 0 W/m2
04:54 28.7 °F 22.9 °F 30.08 in SE 4.2 mph 9.2 mph 78.6% 0.00 in 0 W/m2
04:59 28.7 °F 23 °F 30.08 in SE 5.6 mph 10.3 mph 79% 0.00 in 0 W/m2
05:04 28.9 °F 23.2 °F 30.08 in SE 5.2 mph 10.3 mph 79% 0.00 in 0 W/m2
05:09 29.1 °F 23.4 °F 30.08 in SE 6 mph 10.3 mph 79% 0.00 in 0 W/m2
05:14 29.3 °F 23.9 °F 30.08 in SE 6.2 mph 10.3 mph 79.8% 0.00 in 0 W/m2
05:19 29.6 °F 24.2 °F 30.07 in SSE 7.1 mph 11.5 mph 80% 0.00 in 0 W/m2
05:24 30 °F 24.6 °F 30.07 in SSE 6.6 mph 11.5 mph 80% 0.00 in 0 W/m2
05:29 30.3 °F 24.9 °F 30.07 in SSE 6.7 mph 11.5 mph 80% 0.00 in 0 W/m2
05:34 30.6 °F 25.5 °F 30.06 in SSE 8 mph 12.6 mph 80.9% 0.00 in 0 W/m2
05:39 30.9 °F 25.8 °F 30.06 in SSE 8.4 mph 12.6 mph 81% 0.00 in 0 W/m2
05:44 31.2 °F 26.1 °F 30.06 in SSE 8.6 mph 13.8 mph 81% 0.00 in 0 W/m2
05:49 31.4 °F 26.2 °F 30.05 in SSE 7.7 mph 13.8 mph 81% 0.00 in 0 W/m2
05:54 31.6 °F 26.4 °F 30.05 in SSE 8.4 mph 13.8 mph 81% 0.00 in 0 W/m2
05:59 31.8 °F 26.6 °F 30.05 in SSE 8.3 mph 14.9 mph 81% 0.00 in 0 W/m2
06:04 31.9 °F 26.8 °F 30.05 in SSE 9.2 mph 18.4 mph 81% 0.00 in 0 W/m2
06:09 32.2 °F 27 °F 30.05 in SSE 8.3 mph 18.4 mph 81% 0.00 in 0 W/m2
06:14 32.3 °F 27.2 °F 30.05 in SSE 10.8 mph 20.7 mph 81% 0.00 in 0 W/m2
06:19 32.5 °F 27.3 °F 30.04 in SSE 9.6 mph 20.7 mph 81% 0.00 in 0 W/m2
06:24 32.6 °F 27.4 °F 30.04 in SSE 10 mph 17.2 mph 81% 0.00 in 0 W/m2
06:29 32.7 °F 27.5 °F 30.05 in SSE 8.7 mph 17.2 mph 81% 0.00 in 0 W/m2
06:34 32.7 °F 27.6 °F 30.05 in SSE 8.9 mph 16.1 mph 81% 0.00 in 0 W/m2
06:39 32.8 °F 27.6 °F 30.05 in SSE 10.8 mph 17.2 mph 81% 0.00 in 0 W/m2
06:44 32.9 °F 27.7 °F 30.04 in SSE 10.2 mph 17.2 mph 81% 0.00 in 0 W/m2
06:49 33 °F 27.9 °F 30.04 in SSE 10.2 mph 17.2 mph 81% 0.00 in 0 W/m2
06:54 33.1 °F 27.9 °F 30.04 in SSE 10 mph 14.9 mph 81% 0.00 in 0 W/m2
06:59 33.2 °F 28.1 °F 30.04 in SSE 10.4 mph 18.4 mph 81.2% 0.00 in 0 W/m2
07:04 33.3 °F 28.3 °F 30.03 in SSE 10.5 mph 18.4 mph 81.4% 0.00 in 0 W/m2
07:09 33.4 °F 28.5 °F 30.02 in SSE 11.1 mph 18.4 mph 82% 0.00 in 0 W/m2
07:14 33.5 °F 28.6 °F 30.02 in SSE 11 mph 20.7 mph 82% 0.00 in 7 W/m2
07:19 33.7 °F 28.8 °F 30.02 in SSE 10 mph 20.7 mph 82% 0.00 in 11 W/m2
07:24 33.8 °F 28.9 °F 30.02 in SSE 10.8 mph 16.1 mph 82% 0.00 in 18 W/m2
07:29 33.9 °F 29 °F 30.02 in SSE 11.5 mph 17.2 mph 82% 0.00 in 21 W/m2
07:34 34 °F 29.1 °F 30.02 in SSE 10.3 mph 17.2 mph 82% 0.00 in 21 W/m2
07:39 34.2 °F 29.3 °F 30.02 in SSE 8.8 mph 16.1 mph 82% 0.00 in 23 W/m2
07:44 34.3 °F 29.4 °F 30.02 in SSE 9.8 mph 16.1 mph 82% 0.00 in 26 W/m2
07:49 34.4 °F 29.5 °F 30.02 in SSE 8.7 mph 16.1 mph 82% 0.00 in 28 W/m2
07:54 34.5 °F 29.6 °F 30.02 in SSE 8.7 mph 14.9 mph 82% 0.00 in 35 W/m2
07:59 34.6 °F 29.7 °F 30.02 in SSE 9.2 mph 14.9 mph 82% 0.00 in 42 W/m2
08:04 34.8 °F 29.9 °F 30.02 in SSE 8.4 mph 13.8 mph 82% 0.00 in 60 W/m2
08:09 34.9 °F 30 °F 30.02 in SSE 7.4 mph 13.8 mph 82% 0.00 in 74 W/m2
08:14 35.1 °F 30.4 °F 30.02 in SSE 8.5 mph 13.8 mph 82.8% 0.00 in 86 W/m2
08:19 35.3 °F 30.6 °F 30.02 in SSE 9.5 mph 16.1 mph 83% 0.00 in 90 W/m2
08:24 35.5 °F 30.9 °F 30.02 in SSE 8.3 mph 16.1 mph 83% 0.00 in 88 W/m2
08:29 35.7 °F 31.1 °F 30.02 in SSE 8.2 mph 14.9 mph 83% 0.00 in 77 W/m2
08:34 35.9 °F 31.3 °F 30.02 in SSE 9 mph 14.9 mph 83% 0.00 in 70 W/m2
08:39 36.1 °F 31.5 °F 30.02 in SSE 8.8 mph 14.9 mph 83% 0.00 in 83 W/m2
08:44 36.3 °F 31.6 °F 30.02 in South 10.2 mph 17.2 mph 83% 0.00 in 83 W/m2
08:49 36.6 °F 31.9 °F 30.02 in South 10.8 mph 19.5 mph 83% 0.00 in 88 W/m2
08:54 36.9 °F 32.2 °F 30.01 in South 11.1 mph 19.5 mph 83% 0.00 in 95 W/m2
08:59 37.1 °F 32.4 °F 30.02 in South 11 mph 17.2 mph 83% 0.00 in 95 W/m2
09:04 37.2 °F 32.6 °F 30.02 in SSE 12.1 mph 20.7 mph 83% 0.00 in 102 W/m2
09:09 37.4 °F 32.7 °F 30.01 in South 10 mph 20.7 mph 82.8% 0.00 in 113 W/m2
09:14 37.6 °F 32.7 °F 30.01 in South 9.8 mph 16.1 mph 82.2% 0.00 in 113 W/m2
09:19 37.8 °F 32.9 °F 30.02 in South 11.6 mph 20.7 mph 82.2% 0.00 in 114 W/m2
09:24 37.9 °F 32.9 °F 30.02 in South 11.8 mph 20.7 mph 82% 0.00 in 144 W/m2
09:29 38.1 °F 33.1 °F 30.02 in South 10.4 mph 19.5 mph 82% 0.00 in 144 W/m2
09:34 38.3 °F 33.3 °F 30.02 in South 8.5 mph 18.4 mph 82% 0.00 in 158 W/m2
09:39 38.6 °F 33.6 °F 30.01 in South 9.5 mph 17.2 mph 82% 0.00 in 158 W/m2
09:44 38.9 °F 33.9 °F 30.01 in South 8.3 mph 17.2 mph 82% 0.00 in 169 W/m2
09:49 39.2 °F 34.2 °F 30.01 in South 11.6 mph 20.7 mph 82% 0.00 in 153 W/m2
09:54 39.5 °F 34.3 °F 30.01 in South 9.4 mph 20.7 mph 81.4% 0.00 in 165 W/m2
09:59 39.7 °F 34.4 °F 30.01 in South 11.3 mph 23 mph 81% 0.00 in 185 W/m2
10:04 40 °F 34.7 °F 30.00 in South 10.2 mph 23 mph 81% 0.00 in 195 W/m2
10:09 40.4 °F 34.9 °F 30.00 in South 9.9 mph 16.1 mph 80.6% 0.00 in 195 W/m2
10:14 40.7 °F 35 °F 30.00 in South 10.8 mph 17.2 mph 80% 0.00 in 200 W/m2
10:19 41 °F 35.3 °F 29.99 in South 12.1 mph 21.9 mph 80% 0.00 in 199 W/m2
10:24 41.3 °F 35.5 °F 29.99 in South 11.6 mph 21.9 mph 79.5% 0.00 in 199 W/m2
10:29 41.7 °F 35.7 °F 29.99 in South 11.5 mph 20.7 mph 79% 0.00 in 199 W/m2
10:34 42 °F 35.8 °F 29.99 in South 11.1 mph 18.4 mph 78.6% 0.00 in 204 W/m2
10:39 42.3 °F 35.9 °F 29.98 in South 11.9 mph 23 mph 78% 0.00 in 211 W/m2
10:44 42.7 °F 36.3 °F 29.98 in South 11.3 mph 23 mph 78% 0.00 in 209 W/m2
10:49 43 °F 36.3 °F 29.98 in South 10.5 mph 20.7 mph 77% 0.00 in 193 W/m2
10:54 43.2 °F 36.5 °F 29.98 in South 10.1 mph 20.7 mph 77% 0.00 in 195 W/m2
10:59 43.5 °F 36.8 °F 29.98 in South 10.5 mph 19.5 mph 77% 0.00 in 192 W/m2
11:04 43.7 °F 36.7 °F 29.98 in South 9.7 mph 17.2 mph 76.1% 0.00 in 185 W/m2
11:09 43.9 °F 36.8 °F 29.97 in South 9.3 mph 17.2 mph 76% 0.00 in 183 W/m2
11:14 44 °F 36.9 °F 29.97 in South 11.2 mph 17.2 mph 76% 0.00 in 200 W/m2
11:19 44.2 °F 37 °F 29.96 in South 10.9 mph 20.7 mph 75.7% 0.00 in 202 W/m2
11:24 44.4 °F 37 °F 29.96 in South 10.7 mph 21.9 mph 75.2% 0.00 in 193 W/m2
11:29 44.6 °F 37.2 °F 29.96 in South 9.5 mph 21.9 mph 75% 0.00 in 186 W/m2
11:34 44.8 °F 37.4 °F 29.96 in South 9.5 mph 16.1 mph 75% 0.00 in 190 W/m2
11:39 45 °F 37.6 °F 29.96 in South 10.2 mph 19.5 mph 75% 0.00 in 193 W/m2
11:44 45.2 °F 37.8 °F 29.95 in South 10.8 mph 19.5 mph 75% 0.00 in 192 W/m2
11:49 45.4 °F 37.8 °F 29.95 in South 9 mph 16.1 mph 74.7% 0.00 in 181 W/m2
11:54 45.5 °F 37.7 °F 29.95 in South 9.2 mph 14.9 mph 74% 0.00 in 183 W/m2
11:59 45.6 °F 37.8 °F 29.94 in South 9.8 mph 14.9 mph 74% 0.00 in 183 W/m2
12:04 45.7 °F 37.9 °F 29.94 in South 9.6 mph 14.9 mph 74% 0.00 in 188 W/m2
12:09 45.8 °F 38 °F 29.94 in SSW 7.7 mph 14.9 mph 74% 0.00 in 204 W/m2
12:14 46 °F 38.2 °F 29.94 in South 8.9 mph 14.9 mph 74% 0.00 in 207 W/m2
12:19 46.1 °F 38.1 °F 29.94 in South 8.5 mph 16.1 mph 73.4% 0.00 in 218 W/m2
12:24 46.3 °F 38.1 °F 29.93 in South 7.5 mph 16.1 mph 73% 0.00 in 216 W/m2
12:29 46.5 °F 38.3 °F 29.94 in South 11.3 mph 17.2 mph 73% 0.00 in 178 W/m2
12:34 46.6 °F 38.4 °F 29.94 in South 7.9 mph 17.2 mph 73% 0.00 in 141 W/m2
12:39 46.6 °F 38.5 °F 29.94 in SSW 8.6 mph 18.4 mph 73% 0.00 in 183 W/m2
12:44 46.8 °F 38.6 °F 29.93 in SSW 10.1 mph 18.4 mph 73% 0.00 in 190 W/m2
12:49 46.8 °F 38.6 °F 29.93 in South 9.5 mph 16.1 mph 73% 0.00 in 195 W/m2
12:54 47 °F 38.8 °F 29.93 in South 9.9 mph 18.4 mph 73% 0.00 in 188 W/m2
12:59 47.1 °F 38.9 °F 29.92 in South 7.9 mph 18.4 mph 73% 0.00 in 172 W/m2
13:04 47.2 °F 39 °F 29.92 in South 8.5 mph 14.9 mph 73% 0.00 in 174 W/m2
13:09 47.4 °F 39.1 °F 29.92 in South 9.9 mph 17.2 mph 73% 0.00 in 172 W/m2
13:14 47.5 °F 39.2 °F 29.91 in South 11.8 mph 17.2 mph 73% 0.00 in 174 W/m2
13:19 47.5 °F 39.3 °F 29.91 in South 9.4 mph 17.2 mph 73% 0.00 in 171 W/m2
13:24 47.7 °F 39.5 °F 29.90 in South 10.5 mph 19.5 mph 73% 0.00 in 155 W/m2
13:29 47.7 °F 39.5 °F 29.90 in South 10.8 mph 24.1 mph 73% 0.00 in 142 W/m2
13:34 47.8 °F 39.6 °F 29.90 in South 8.9 mph 24.1 mph 73% 0.00 in 146 W/m2
13:39 47.9 °F 39.6 °F 29.90 in South 10.2 mph 16.1 mph 73% 0.00 in 146 W/m2
13:44 47.9 °F 39.7 °F 29.90 in South 9 mph 14.9 mph 73% 0.00 in 137 W/m2
13:49 47.9 °F 39.7 °F 29.90 in South 9.9 mph 19.5 mph 73% 0.00 in 128 W/m2
13:54 47.9 °F 39.6 °F 29.90 in South 9.3 mph 19.5 mph 73% 0.00 in 125 W/m2
13:59 47.9 °F 39.6 °F 29.90 in SSE 9.1 mph 16.1 mph 73% 0.00 in 127 W/m2
14:04 47.9 °F 39.7 °F 29.89 in South 9.9 mph 19.5 mph 73% 0.00 in 125 W/m2
14:09 47.9 °F 39.9 °F 29.89 in SSE 9.9 mph 19.5 mph 73.7% 0.00 in 111 W/m2
14:14 47.9 °F 40 °F 29.89 in South 10.4 mph 17.2 mph 74% 0.00 in 97 W/m2
14:19 47.8 °F 39.9 °F 29.88 in South 10.9 mph 19.5 mph 74% 0.00 in 95 W/m2
14:24 47.8 °F 39.9 °F 29.88 in SSE 9.4 mph 19.5 mph 74% 0.00 in 93 W/m2
14:29 47.8 °F 39.9 °F 29.88 in SSE 9.2 mph 16.1 mph 74% 0.00 in 86 W/m2
14:34 47.8 °F 39.9 °F 29.88 in South 8.9 mph 16.1 mph 74% 0.00 in 84 W/m2
14:39 47.9 °F 40 °F 29.88 in South 9.6 mph 14.9 mph 74.2% 0.00 in 81 W/m2
14:44 47.9 °F 40.2 °F 29.88 in South 8.6 mph 14.9 mph 74.7% 0.00 in 76 W/m2
14:49 47.9 °F 40.4 °F 29.88 in South 8.6 mph 16.1 mph 75% 0.00 in 81 W/m2
14:54 47.9 °F 40.4 °F 29.88 in SSE 8.8 mph 16.1 mph 75% 0.00 in 88 W/m2
14:59 48 °F 40.5 °F 29.88 in South 10.2 mph 17.2 mph 75% 0.00 in 84 W/m2
15:04 48 °F 40.5 °F 29.88 in SSE 8.9 mph 17.2 mph 75% 0.00 in 65 W/m2
15:09 48.1 °F 40.5 °F 29.88 in SSE 8.6 mph 14.9 mph 75% 0.00 in 58 W/m2
15:14 48.1 °F 40.5 °F 29.88 in SSE 7.9 mph 13.8 mph 75% 0.00 in 54 W/m2
15:19 48 °F 40.5 °F 29.88 in SSE 8.6 mph 11.5 mph 75% 0.00 in 47 W/m2
15:24 48 °F 40.5 °F 29.88 in South 9.5 mph 14.9 mph 75% 0.00 in 44 W/m2
15:29 48 °F 40.5 °F 29.88 in SSE 9.1 mph 14.9 mph 75% 0.00 in 39 W/m2
15:34 48 °F 40.4 °F 29.88 in SSE 8.6 mph 14.9 mph 75% 0.00 in 28 W/m2
15:39 47.9 °F 40.4 °F 29.88 in SSE 8.5 mph 12.6 mph 75% 0.00 in 23 W/m2
15:44 47.9 °F 40.3 °F 29.88 in SSE 8.2 mph 16.1 mph 75% 0.00 in 18 W/m2
15:49 47.8 °F 40.2 °F 29.88 in SSE 8 mph 16.1 mph 75% 0.00 in 16 W/m2
15:54 47.7 °F 40.4 °F 29.88 in SSE 8.8 mph 13.8 mph 75.7% 0.00 in 14 W/m2
15:59 47.5 °F 40.4 °F 29.88 in SSE 7.8 mph 12.6 mph 76% 0.00 in 12 W/m2
16:04 47.4 °F 40.3 °F 29.88 in South 9 mph 14.9 mph 76% 0.00 in 11 W/m2
16:09 47.4 °F 40.2 °F 29.88 in SSE 8.1 mph 14.9 mph 76% 0.00 in 7 W/m2
16:14 47.2 °F 40.1 °F 29.88 in SSE 7.3 mph 13.8 mph 76% 0.00 in 5 W/m2
16:19 47.1 °F 39.9 °F 29.88 in SSE 7.4 mph 12.6 mph 76% 0.00 in 0 W/m2
16:24 47 °F 39.8 °F 29.88 in SSE 7.6 mph 11.5 mph 76% 0.00 in 0 W/m2
16:29 46.9 °F 39.7 °F 29.88 in SSE 5.9 mph 13.8 mph 76% 0.00 in 0 W/m2
16:34 46.8 °F 40 °F 29.88 in SSE 7.1 mph 13.8 mph 77% 0.00 in 0 W/m2
16:39 46.7 °F 39.9 °F 29.88 in SSE 6.7 mph 11.5 mph 77% 0.00 in 0 W/m2
16:44 46.6 °F 39.8 °F 29.88 in SSE 6.7 mph 10.3 mph 77% 0.00 in 0 W/m2
16:49 46.5 °F 39.7 °F 29.87 in SSE 6.1 mph 12.6 mph 77% 0.00 in 0 W/m2
16:54 46.4 °F 39.6 °F 29.87 in SSE 6.5 mph 12.6 mph 77% 0.00 in 0 W/m2
16:59 46.3 °F 39.5 °F 29.87 in SSE 6.2 mph 11.5 mph 77% 0.00 in 0 W/m2
17:04 46.2 °F 39.7 °F 29.87 in SSE 6.9 mph 12.6 mph 77.8% 0.00 in 0 W/m2
17:09 46.2 °F 39.7 °F 29.87 in SSE 7 mph 12.6 mph 78% 0.00 in 0 W/m2
17:14 46.1 °F 39.6 °F 29.88 in SSE 5.9 mph 10.3 mph 78% 0.00 in 0 W/m2
17:19 46 °F 39.6 °F 29.88 in SSE 6.7 mph 12.6 mph 78% 0.00 in 0 W/m2
17:24 46 °F 39.5 °F 29.88 in SSE 7.9 mph 12.6 mph 78% 0.00 in 0 W/m2
17:29 46 °F 39.5 °F 29.88 in SSE 7.5 mph 11.5 mph 78% 0.00 in 0 W/m2
17:34 46 °F 39.5 °F 29.88 in SSE 7.6 mph 11.5 mph 78% 0.00 in 0 W/m2
17:39 46 °F 39.5 °F 29.88 in SSE 8.7 mph 14.9 mph 78% 0.00 in 0 W/m2
17:44 46.1 °F 39.6 °F 29.88 in SSE 7.9 mph 14.9 mph 78% 0.00 in 0 W/m2
17:49 46.2 °F 39.7 °F 29.88 in SSE 8.8 mph 13.8 mph 78% 0.00 in 0 W/m2
17:54 46.3 °F 40 °F 29.88 in SSE 7.5 mph 13.8 mph 78.6% 0.00 in 0 W/m2
17:59 46.3 °F 39.9 °F 29.88 in SSE 7 mph 11.5 mph 78.1% 0.00 in 0 W/m2
18:04 46.3 °F 39.9 °F 29.88 in SSE 6.5 mph 11.5 mph 78% 0.00 in 0 W/m2
18:09 46.4 °F 39.9 °F 29.87 in SSE 6.1 mph 11.5 mph 78% 0.00 in 0 W/m2
18:14 46.4 °F 39.9 °F 29.87 in SSE 7.6 mph 12.6 mph 78% 0.00 in 0 W/m2
18:19 46.4 °F 40 °F 29.87 in SSE 6.5 mph 12.6 mph 78% 0.00 in 0 W/m2
18:24 46.5 °F 40 °F 29.87 in SSE 6.6 mph 12.6 mph 78% 0.00 in 0 W/m2
18:29 46.5 °F 40 °F 29.87 in SSE 7.3 mph 12.6 mph 78% 0.00 in 0 W/m2
18:34 46.5 °F 40 °F 29.87 in SSE 7.6 mph 14.9 mph 78% 0.00 in 0 W/m2
18:39 46.5 °F 40 °F 29.87 in SSE 6.5 mph 14.9 mph 78% 0.00 in 0 W/m2
18:44 46.5 °F 40 °F 29.87 in SSE 6.9 mph 11.5 mph 78% 0.00 in 0 W/m2
18:49 46.5 °F 40 °F 29.87 in SSE 5.8 mph 11.5 mph 78% 0.00 in 0 W/m2
18:54 46.5 °F 40 °F 29.87 in SE 6.5 mph 10.3 mph 78% 0.00 in 0 W/m2
18:59 46.4 °F 39.9 °F 29.87 in SSE 6.2 mph 10.3 mph 78% 0.00 in 0 W/m2
19:04 46.4 °F 40.1 °F 29.87 in SE 7.8 mph 11.5 mph 78.4% 0.00 in 0 W/m2
19:09 46.4 °F 40.2 °F 29.86 in SSE 7.5 mph 13.8 mph 79% 0.00 in 0 W/m2
19:14 46.3 °F 40.1 °F 29.86 in SSE 7.6 mph 13.8 mph 78.8% 0.00 in 0 W/m2
19:19 46.3 °F 40.1 °F 29.86 in SE 6.5 mph 12.6 mph 78.8% 0.00 in 0 W/m2
19:24 46.2 °F 40.1 °F 29.86 in SE 6.6 mph 11.5 mph 79% 0.00 in 0 W/m2
19:29 46.2 °F 40.1 °F 29.86 in SSE 6.8 mph 11.5 mph 79% 0.00 in 0 W/m2
19:34 46.1 °F 40 °F 29.86 in SSE 5.5 mph 9.2 mph 79% 0.00 in 0 W/m2
19:39 46 °F 39.9 °F 29.86 in SSE 5.6 mph 11.5 mph 79% 0.00 in 0 W/m2
19:44 46 °F 39.8 °F 29.85 in SSE 6.1 mph 11.5 mph 79% 0.00 in 0 W/m2
19:49 45.9 °F 39.7 °F 29.85 in SSE 5.5 mph 10.3 mph 79% 0.00 in 0 W/m2
19:54 45.8 °F 39.6 °F 29.85 in SE 6.3 mph 10.3 mph 79% 0.00 in 0 W/m2
19:59 45.7 °F 39.5 °F 29.85 in SSE 5.4 mph 10.3 mph 79% 0.00 in 0 W/m2
20:04 45.5 °F 39.4 °F 29.85 in SE 6.7 mph 10.3 mph 79% 0.00 in 0 W/m2
20:09 45.4 °F 39.5 °F 29.85 in SSE 6.1 mph 10.3 mph 79.6% 0.00 in 0 W/m2
20:14 45.4 °F 39.6 °F 29.85 in SSE 7.4 mph 10.3 mph 80% 0.00 in 0 W/m2
20:18 45.3 °F 39.5 °F 29.85 in SSE 7.3 mph 11.5 mph 80% 0.00 in 0 W/m2
Peotne Weather
Compliments of Weather Underground - 4 mb